sensor_id;sensor_type;location;lat;lon;timestamp;pressure;altitude;pressure_sealevel;temperature;humidity
70015;BME280;57358;51.094;6.760;2022-11-20T00:01:20;100773.09;;;1.76;100.00
70015;BME280;57358;51.094;6.760;2022-11-20T00:03:47;100936.47;;;2.73;100.00
70015;BME280;57358;51.094;6.760;2022-11-20T00:06:16;100894.41;;;2.55;100.00
70015;BME280;57358;51.094;6.760;2022-11-20T00:08:43;100868.84;;;2.34;100.00
70015;BME280;57358;51.094;6.760;2022-11-20T00:11:18;100847.44;;;2.23;100.00
70015;BME280;57358;51.094;6.760;2022-11-20T00:13:47;100926.13;;;2.70;100.00
70015;BME280;57358;51.094;6.760;2022-11-20T00:16:16;100927.88;;;2.71;100.00
70015;BME280;57358;51.094;6.760;2022-11-20T00:18:43;100653.44;;;1.02;100.00
70015;BME280;57358;51.094;6.760;2022-11-20T00:21:12;100930.41;;;2.72;100.00
70015;BME280;57358;51.094;6.760;2022-11-20T00:23:39;100902.16;;;2.57;100.00
70015;BME280;57358;51.094;6.760;2022-11-20T00:26:09;100945.03;;;2.76;100.00
70015;BME280;57358;51.094;6.760;2022-11-20T00:28:35;100697.00;;;1.29;100.00
70015;BME280;57358;51.094;6.760;2022-11-20T00:31:03;100928.69;;;2.73;100.00
70015;BME280;57358;51.094;6.760;2022-11-20T00:33:30;100926.94;;;2.75;100.00
70015;BME280;57358;51.094;6.760;2022-11-20T00:36:05;100861.88;;;2.37;100.00
70015;BME280;57358;51.094;6.760;2022-11-20T00:38:33;100929.53;;;2.73;100.00
70015;BME280;57358;51.094;6.760;2022-11-20T00:41:05;100926.94;;;2.75;100.00
70015;BME280;57358;51.094;6.760;2022-11-20T00:43:31;100890.94;;;2.56;100.00
70015;BME280;57358;51.094;6.760;2022-11-20T00:45:59;100923.41;;;2.77;100.00
70015;BME280;57358;51.094;6.760;2022-11-20T00:48:26;100913.97;;;2.75;100.00
70015;BME280;57358;51.094;6.760;2022-11-20T00:50:53;100901.25;;;2.61;100.00
70015;BME280;57358;51.094;6.760;2022-11-20T00:53:20;100508.84;;;0.36;100.00
70015;BME280;57358;51.094;6.760;2022-11-20T00:55:58;100885.72;;;2.59;100.00
70015;BME280;57358;51.094;6.760;2022-11-20T00:58:29;100919.06;;;2.79;100.00
70015;BME280;57358;51.094;6.760;2022-11-20T01:01:17;100900.25;;;2.68;100.00
70015;BME280;57358;51.094;6.760;2022-11-20T01:03:46;100684.81;;;1.37;100.00
70015;BME280;57358;51.094;6.760;2022-11-20T01:06:27;100919.91;;;2.82;100.00
70015;BME280;57358;51.094;6.760;2022-11-20T01:08:56;100811.44;;;2.07;100.00
70015;BME280;57358;51.094;6.760;2022-11-20T01:11:25;100896.88;;;2.65;100.00
70015;BME280;57358;51.094;6.760;2022-11-20T01:13:52;100945.72;;;2.86;100.00
70015;BME280;57358;51.094;6.760;2022-11-20T01:16:22;100918.13;;;2.85;100.00
70015;BME280;57358;51.094;6.760;2022-11-20T01:18:51;100910.34;;;2.84;100.00
70015;BME280;57358;51.094;6.760;2022-11-20T01:21:30;100905.16;;;2.85;100.00
70015;BME280;57358;51.094;6.760;2022-11-20T01:23:57;100801.78;;;2.17;100.00
70015;BME280;57358;51.094;6.760;2022-11-20T01:26:27;100886.44;;;2.68;100.00
70015;BME280;57358;51.094;6.760;2022-11-20T01:28:54;100914.63;;;2.86;100.00
70015;BME280;57358;51.094;6.760;2022-11-20T01:31:23;100912.03;;;2.88;100.00
70015;BME280;57358;51.094;6.760;2022-11-20T01:33:52;100689.00;;;1.46;100.00
70015;BME280;57358;51.094;6.760;2022-11-20T01:36:21;100911.28;;;2.81;100.00
70015;BME280;57358;51.094;6.760;2022-11-20T01:38:51;100833.56;;;2.27;100.00
70015;BME280;57358;51.094;6.760;2022-11-20T01:41:17;100932.78;;;2.86;100.00
70015;BME280;57358;51.094;6.760;2022-11-20T01:44:03;100911.22;;;2.84;100.00
70015;BME280;57358;51.094;6.760;2022-11-20T01:46:32;100953.63;;;2.80;100.00
70015;BME280;57358;51.094;6.760;2022-11-20T01:49:04;100812.16;;;2.17;100.00
70015;BME280;57358;51.094;6.760;2022-11-20T01:51:37;100833.44;;;2.34;100.00
70015;BME280;57358;51.094;6.760;2022-11-20T01:54:09;100885.66;;;2.63;100.00
70015;BME280;57358;51.094;6.760;2022-11-20T01:56:40;100662.50;;;1.32;100.00
70015;BME280;57358;51.094;6.760;2022-11-20T01:59:09;100815.47;;;2.25;100.00
70015;BME280;57358;51.094;6.760;2022-11-20T02:01:37;100776.19;;;1.98;100.00
70015;BME280;57358;51.094;6.760;2022-11-20T02:04:07;100884.81;;;2.60;100.00
70015;BME280;57358;51.094;6.760;2022-11-20T02:06:46;100824.94;;;2.26;100.00
70015;BME280;57358;51.094;6.760;2022-11-20T02:09:15;100787.31;;;2.04;100.00
70015;BME280;57358;51.094;6.760;2022-11-20T02:11:41;100734.31;;;1.73;100.00
70015;BME280;57358;51.094;6.760;2022-11-20T02:14:08;100868.44;;;2.58;100.00
70015;BME280;57358;51.094;6.760;2022-11-20T02:16:38;100865.91;;;2.55;100.00
70015;BME280;57358;51.094;6.760;2022-11-20T02:19:10;100748.81;;;1.82;100.00
70015;BME280;57358;51.094;6.760;2022-11-20T02:21:47;100858.19;;;2.52;100.00
70015;BME280;57358;51.094;6.760;2022-11-20T02:24:17;100715.63;;;1.54;100.00
70015;BME280;57358;51.094;6.760;2022-11-20T02:26:54;100855.56;;;2.54;100.00
70015;BME280;57358;51.094;6.760;2022-11-20T02:29:27;100785.75;;;1.95;100.00
70015;BME280;57358;51.094;6.760;2022-11-20T02:31:55;100676.16;;;1.40;100.00
70015;BME280;57358;51.094;6.760;2022-11-20T02:34:22;100862.47;;;2.55;100.00
70015;BME280;57358;51.094;6.760;2022-11-20T02:36:51;100806.03;;;2.23;100.00
70015;BME280;57358;51.094;6.760;2022-11-20T02:39:19;100812.88;;;2.25;100.00
70015;BME280;57358;51.094;6.760;2022-11-20T02:41:47;100860.72;;;2.57;100.00
70015;BME280;57358;51.094;6.760;2022-11-20T02:44:14;100717.97;;;1.70;100.00
70015;BME280;57358;51.094;6.760;2022-11-20T02:46:40;100867.59;;;2.56;100.00
70015;BME280;57358;51.094;6.760;2022-11-20T02:49:07;100800.97;;;2.15;100.00
70015;BME280;57358;51.094;6.760;2022-11-20T02:51:33;100733.41;;;1.76;100.00
70015;BME280;57358;51.094;6.760;2022-11-20T02:53:59;100873.59;;;2.60;100.00
70015;BME280;57358;51.094;6.760;2022-11-20T02:56:26;100837.78;;;2.32;100.00
70015;BME280;57358;51.094;6.760;2022-11-20T02:58:53;100814.63;;;2.23;100.00
70015;BME280;57358;51.094;6.760;2022-11-20T03:01:19;100812.25;;;2.09;100.00
70015;BME280;57358;51.094;6.760;2022-11-20T03:03:46;100867.75;;;2.49;100.00
70015;BME280;57358;51.094;6.760;2022-11-20T03:06:16;100873.03;;;2.43;100.00
70015;BME280;57358;51.094;6.760;2022-11-20T03:08:43;100719.09;;;1.50;100.00
70015;BME280;57358;51.094;6.760;2022-11-20T03:11:09;100674.78;;;1.16;100.00
70015;BME280;57358;51.094;6.760;2022-11-20T03:13:36;100870.59;;;2.32;100.00
70015;BME280;57358;51.094;6.760;2022-11-20T03:16:16;100830.50;;;2.02;100.00
70015;BME280;57358;51.094;6.760;2022-11-20T03:18:43;100645.84;;;0.91;100.00
70015;BME280;57358;51.094;6.760;2022-11-20T03:21:11;100832.28;;;1.96;100.00
70015;BME280;57358;51.094;6.760;2022-11-20T03:23:39;100866.59;;;2.11;100.00
70015;BME280;57358;51.094;6.760;2022-11-20T03:26:17;100863.22;;;2.06;100.00
70015;BME280;57358;51.094;6.760;2022-11-20T03:28:52;100796.47;;;1.69;100.00
70015;BME280;57358;51.094;6.760;2022-11-20T03:31:23;100657.13;;;0.85;100.00
70015;BME280;57358;51.094;6.760;2022-11-20T03:33:50;100766.44;;;1.57;100.00
70015;BME280;57358;51.094;6.760;2022-11-20T03:36:17;100867.47;;;2.10;100.00
70015;BME280;57358;51.094;6.760;2022-11-20T03:38:44;100781.06;;;1.58;100.00
70015;BME280;57358;51.094;6.760;2022-11-20T03:41:13;100834.88;;;1.96;100.00
70015;BME280;57358;51.094;6.760;2022-11-20T03:43:40;100815.16;;;1.88;100.00
70015;BME280;57358;51.094;6.760;2022-11-20T03:46:07;100851.94;;;2.11;100.00
70015;BME280;57358;51.094;6.760;2022-11-20T03:48:34;100838.25;;;2.03;100.00
70015;BME280;57358;51.094;6.760;2022-11-20T03:53:34;100714.38;;;1.19;100.00
70015;BME280;57358;51.094;6.760;2022-11-20T03:56:00;100681.97;;;0.94;100.00
70015;BME280;57358;51.094;6.760;2022-11-20T03:58:27;100762.50;;;1.28;100.00
70015;BME280;57358;51.094;6.760;2022-11-20T04:00:53;100678.63;;;0.84;100.00
70015;BME280;57358;51.094;6.760;2022-11-20T04:03:20;100805.25;;;1.55;100.00
70015;BME280;57358;51.094;6.760;2022-11-20T04:05:46;100732.72;;;1.01;100.00
70015;BME280;57358;51.094;6.760;2022-11-20T04:08:12;100775.47;;;1.27;100.00
70015;BME280;57358;51.094;6.760;2022-11-20T04:10:39;100803.50;;;1.57;100.00
70015;BME280;57358;51.094;6.760;2022-11-20T04:13:05;100832.53;;;1.79;100.00
70015;BME280;57358;51.094;6.760;2022-11-20T04:15:31;100794.06;;;1.56;100.00
70015;BME280;57358;51.094;6.760;2022-11-20T04:18:03;100688.00;;;0.94;100.00
70015;BME280;57358;51.094;6.760;2022-11-20T04:20:30;100799.94;;;1.66;100.00
70015;BME280;57358;51.094;6.760;2022-11-20T04:22:56;100841.97;;;1.84;100.00
70015;BME280;57358;51.094;6.760;2022-11-20T04:25:22;100736.63;;;1.30;100.00
70015;BME280;57358;51.094;6.760;2022-11-20T04:27:49;100839.25;;;1.93;100.00
70015;BME280;57358;51.094;6.760;2022-11-20T04:30:15;100807.56;;;1.75;100.00
70015;BME280;57358;51.094;6.760;2022-11-20T04:32:42;100780.22;;;1.57;100.00
70015;BME280;57358;51.094;6.760;2022-11-20T04:35:08;100816.19;;;1.74;100.00
70015;BME280;57358;51.094;6.760;2022-11-20T04:37:34;100837.50;;;1.93;100.00
70015;BME280;57358;51.094;6.760;2022-11-20T04:40:01;100757.25;;;1.36;100.00
70015;BME280;57358;51.094;6.760;2022-11-20T04:42:27;100714.34;;;1.23;100.00
70015;BME280;57358;51.094;6.760;2022-11-20T04:44:56;100838.31;;;1.98;100.00
70015;BME280;57358;51.094;6.760;2022-11-20T04:47:23;100597.22;;;0.57;100.00
70015;BME280;57358;51.094;6.760;2022-11-20T04:49:50;100851.09;;;2.08;100.00
70015;BME280;57358;51.094;6.760;2022-11-20T04:52:16;100845.03;;;2.10;100.00
70015;BME280;57358;51.094;6.760;2022-11-20T04:54:43;100756.94;;;1.59;100.00
70015;BME280;57358;51.094;6.760;2022-11-20T04:57:09;100810.69;;;1.99;100.00
70015;BME280;57358;51.094;6.760;2022-11-20T04:59:40;100845.81;;;2.15;100.00
70015;BME280;57358;51.094;6.760;2022-11-20T05:02:06;100712.41;;;1.38;100.00
70015;BME280;57358;51.094;6.760;2022-11-20T05:04:32;100658.50;;;1.09;100.00
70015;BME280;57358;51.094;6.760;2022-11-20T05:06:59;100861.25;;;2.23;100.00
70015;BME280;57358;51.094;6.760;2022-11-20T05:09:25;100835.41;;;2.18;100.00
70015;BME280;57358;51.094;6.760;2022-11-20T05:11:52;100834.56;;;2.16;100.00
70015;BME280;57358;51.094;6.760;2022-11-20T05:14:18;100802.97;;;1.94;100.00
70015;BME280;57358;51.094;6.760;2022-11-20T05:16:45;100669.59;;;1.19;100.00
70015;BME280;57358;51.094;6.760;2022-11-20T05:19:11;100827.88;;;2.03;100.00
70015;BME280;57358;51.094;6.760;2022-11-20T05:21:37;100804.78;;;1.91;100.00
70015;BME280;57358;51.094;6.760;2022-11-20T05:24:04;100815.06;;;1.95;100.00
70015;BME280;57358;51.094;6.760;2022-11-20T05:26:32;100843.34;;;2.08;100.00
70015;BME280;57358;51.094;6.760;2022-11-20T05:28:58;100751.13;;;1.45;100.00
70015;BME280;57358;51.094;6.760;2022-11-20T05:31:25;100790.38;;;1.73;100.00
70015;BME280;57358;51.094;6.760;2022-11-20T05:33:54;100762.22;;;1.50;100.00
70015;BME280;57358;51.094;6.760;2022-11-20T05:36:21;100704.94;;;1.17;100.00
70015;BME280;57358;51.094;6.760;2022-11-20T05:38:48;100787.78;;;1.73;100.00
70015;BME280;57358;51.094;6.760;2022-11-20T05:41:18;100833.09;;;2.02;100.00
70015;BME280;57358;51.094;6.760;2022-11-20T05:43:46;100839.16;;;2.01;100.00
70015;BME280;57358;51.094;6.760;2022-11-20T05:46:14;100796.31;;;1.79;100.00
70015;BME280;57358;51.094;6.760;2022-11-20T05:48:42;100751.91;;;1.48;100.00
70015;BME280;57358;51.094;6.760;2022-11-20T05:51:10;100822.94;;;1.88;100.00
70015;BME280;57358;51.094;6.760;2022-11-20T05:53:37;100796.56;;;1.63;100.00
70015;BME280;57358;51.094;6.760;2022-11-20T05:56:09;100824.84;;;1.73;100.00
70015;BME280;57358;51.094;6.760;2022-11-20T05:58:36;100761.56;;;1.34;100.00
70015;BME280;57358;51.094;6.760;2022-11-20T06:03:31;100717.22;;;1.01;100.00
70015;BME280;57358;51.094;6.760;2022-11-20T06:05:59;100815.63;;;1.54;100.00
70015;BME280;57358;51.094;6.760;2022-11-20T06:08:25;100764.41;;;1.15;100.00
70015;BME280;57358;51.094;6.760;2022-11-20T06:10:51;100820.97;;;1.40;100.00
70015;BME280;57358;51.094;6.760;2022-11-20T06:13:18;100747.47;;;0.90;100.00
70015;BME280;57358;51.094;6.760;2022-11-20T06:15:49;100734.63;;;0.84;100.00
70015;BME280;57358;51.094;6.760;2022-11-20T06:18:15;100757.03;;;0.85;100.00
70015;BME280;57358;51.094;6.760;2022-11-20T06:20:42;100761.38;;;0.79;100.00
70015;BME280;57358;51.094;6.760;2022-11-20T06:23:08;100679.22;;;0.36;100.00
70015;BME280;57358;51.094;6.760;2022-11-20T06:25:39;100812.81;;;1.01;100.00
70015;BME280;57358;51.094;6.760;2022-11-20T06:28:06;100570.06;;;-0.62;100.00
70015;BME280;57358;51.094;6.760;2022-11-20T06:30:33;100771.97;;;0.52;100.00
70015;BME280;57358;51.094;6.760;2022-11-20T06:32:59;100810.59;;;0.66;100.00
70015;BME280;57358;51.094;6.760;2022-11-20T06:35:26;100751.69;;;0.15;100.00
70015;BME280;57358;51.094;6.760;2022-11-20T06:37:52;100774.91;;;0.16;100.00
70015;BME280;57358;51.094;6.760;2022-11-20T06:40:19;100717.56;;;-0.21;100.00
70015;BME280;57358;51.094;6.760;2022-11-20T06:42:45;100819.47;;;0.35;100.00
70015;BME280;57358;51.094;6.760;2022-11-20T06:45:11;100674.00;;;-0.59;100.00
70015;BME280;57358;51.094;6.760;2022-11-20T06:47:38;100603.81;;;-0.98;100.00
70015;BME280;57358;51.094;6.760;2022-11-20T06:50:05;100733.03;;;-0.21;100.00
70015;BME280;57358;51.094;6.760;2022-11-20T06:52:32;100819.41;;;0.40;100.00
70015;BME280;57358;51.094;6.760;2022-11-20T06:55:02;100764.59;;;0.13;100.00
70015;BME280;57358;51.094;6.760;2022-11-20T06:57:29;100581.56;;;-1.06;100.00
70015;BME280;57358;51.094;6.760;2022-11-20T06:59:55;100791.97;;;0.34;100.00
70015;BME280;57358;51.094;6.760;2022-11-20T07:02:21;100822.78;;;0.53;100.00
70015;BME280;57358;51.094;6.760;2022-11-20T07:04:48;100833.06;;;0.56;100.00
70015;BME280;57358;51.094;6.760;2022-11-20T07:07:14;100679.03;;;-0.39;100.00
70015;BME280;57358;51.094;6.760;2022-11-20T07:09:41;100776.47;;;0.30;100.00
70015;BME280;57358;51.094;6.760;2022-11-20T07:12:07;100800.56;;;0.33;100.00
70015;BME280;57358;51.094;6.760;2022-11-20T07:14:34;100838.13;;;0.67;100.00
70015;BME280;57358;51.094;6.760;2022-11-20T07:17:00;100772.28;;;0.18;100.00
70015;BME280;57358;51.094;6.760;2022-11-20T07:19:27;100843.19;;;0.81;100.00
70015;BME280;57358;51.094;6.760;2022-11-20T07:21:53;100751.50;;;0.36;100.00
70015;BME280;57358;51.094;6.760;2022-11-20T07:24:19;100743.72;;;0.38;100.00
70015;BME280;57358;51.094;6.760;2022-11-20T07:26:46;100751.31;;;0.55;100.00
70015;BME280;57358;51.094;6.760;2022-11-20T07:29:15;100848.78;;;1.21;100.00
70015;BME280;57358;51.094;6.760;2022-11-20T07:31:42;100740.22;;;0.45;100.00
70015;BME280;57358;51.094;6.760;2022-11-20T07:34:09;100811.22;;;0.88;100.00
70015;BME280;57358;51.094;6.760;2022-11-20T07:36:35;100739.28;;;0.52;100.00
70015;BME280;57358;51.094;6.760;2022-11-20T07:39:02;100842.69;;;1.25;100.00
70015;BME280;57358;51.094;6.760;2022-11-20T07:41:28;100770.78;;;0.87;100.00
70015;BME280;57358;51.094;6.760;2022-11-20T07:43:55;100807.50;;;1.13;100.00
70015;BME280;57358;51.094;6.760;2022-11-20T07:46:21;100731.28;;;0.77;100.00
70015;BME280;57358;51.094;6.760;2022-11-20T07:48:47;100770.56;;;1.04;100.00
70015;BME280;57358;51.094;6.760;2022-11-20T07:51:14;100757.66;;;1.04;100.00
70015;BME280;57358;51.094;6.760;2022-11-20T07:53:40;100829.44;;;1.54;100.00
70015;BME280;57358;51.094;6.760;2022-11-20T07:56:07;100733.69;;;0.91;100.00
70015;BME280;57358;51.094;6.760;2022-11-20T07:58:33;100838.78;;;1.65;100.00
70015;BME280;57358;51.094;6.760;2022-11-20T08:01:05;100765.88;;;1.36;100.00
70015;BME280;57358;51.094;6.760;2022-11-20T08:03:32;100824.69;;;1.84;100.00
70015;BME280;57358;51.094;6.760;2022-11-20T08:05:59;100808.31;;;1.85;100.00
70015;BME280;57358;51.094;6.760;2022-11-20T08:08:29;100756.09;;;1.58;100.00
70015;BME280;57358;51.094;6.760;2022-11-20T08:10:59;100824.44;;;2.03;100.00
70015;BME280;57358;51.094;6.760;2022-11-20T08:14:01;100821.69;;;2.12;100.00
70015;BME280;57358;51.094;6.760;2022-11-20T08:16:45;100707.91;;;1.51;100.00
70015;BME280;57358;51.094;6.760;2022-11-20T08:19:13;100823.16;;;2.30;100.00
70015;BME280;57358;51.094;6.760;2022-11-20T08:21:40;100744.38;;;1.90;100.00
70015;BME280;57358;51.094;6.760;2022-11-20T08:24:08;100745.22;;;1.92;100.00
70015;BME280;57358;51.094;6.760;2022-11-20T08:26:36;100768.09;;;2.18;100.00
70015;BME280;57358;51.094;6.760;2022-11-20T08:29:04;100816.81;;;2.48;100.00
70015;BME280;57358;51.094;6.760;2022-11-20T08:31:30;100763.66;;;2.27;100.00
70015;BME280;57358;51.094;6.760;2022-11-20T08:33:57;100786.66;;;2.44;100.00
70015;BME280;57358;51.094;6.760;2022-11-20T08:36:24;100828.22;;;2.87;100.00
70015;BME280;57358;51.094;6.760;2022-11-20T08:38:53;100851.47;;;2.90;100.00
70015;BME280;57358;51.094;6.760;2022-11-20T08:41:20;100841.06;;;2.93;100.00
70015;BME280;57358;51.094;6.760;2022-11-20T08:44:05;100738.59;;;2.29;100.00
70015;BME280;57358;51.094;6.760;2022-11-20T08:46:40;100847.09;;;2.95;100.00
70015;BME280;57358;51.094;6.760;2022-11-20T08:49:10;100838.38;;;2.99;100.00
70015;BME280;57358;51.094;6.760;2022-11-20T08:51:37;100823.09;;;2.83;100.00
70015;BME280;57358;51.094;6.760;2022-11-20T08:54:04;100798.44;;;2.63;100.00
70015;BME280;57358;51.094;6.760;2022-11-20T08:56:31;100845.25;;;3.00;100.00
70015;BME280;57358;51.094;6.760;2022-11-20T08:58:58;100769.16;;;2.56;100.00
70015;BME280;57358;51.094;6.760;2022-11-20T09:01:47;100847.63;;;3.13;100.00
70015;BME280;57358;51.094;6.760;2022-11-20T09:04:13;100855.56;;;3.05;100.00
70015;BME280;57358;51.094;6.760;2022-11-20T09:06:40;100780.44;;;2.54;100.00
70015;BME280;57358;51.094;6.760;2022-11-20T09:09:07;100753.56;;;2.59;100.00
70015;BME280;57358;51.094;6.760;2022-11-20T09:11:34;100761.25;;;2.64;100.00
70015;BME280;57358;51.094;6.760;2022-11-20T09:14:01;100834.56;;;3.17;100.00
70015;BME280;57358;51.094;6.760;2022-11-20T09:16:28;100647.69;;;1.94;100.00
70015;BME280;57358;51.094;6.760;2022-11-20T09:18:55;100744.13;;;2.57;100.00
70015;BME280;57358;51.094;6.760;2022-11-20T09:21:41;100862.00;;;3.29;100.00
70015;BME280;57358;51.094;6.760;2022-11-20T09:24:08;100771.19;;;2.87;100.00
70015;BME280;57358;51.094;6.760;2022-11-20T09:26:34;100839.28;;;3.40;100.00
70015;BME280;57358;51.094;6.760;2022-11-20T09:29:00;100818.09;;;3.20;100.00
70015;BME280;57358;51.094;6.760;2022-11-20T09:31:27;100720.69;;;2.63;100.00
70015;BME280;57358;51.094;6.760;2022-11-20T09:33:53;100834.41;;;3.25;100.00
70015;BME280;57358;51.094;6.760;2022-11-20T09:36:20;100842.16;;;3.27;100.00
70015;BME280;57358;51.094;6.760;2022-11-20T09:38:46;100827.38;;;3.30;100.00
70015;BME280;57358;51.094;6.760;2022-11-20T09:46:47;100845.28;;;3.43;100.00
70015;BME280;57358;51.094;6.760;2022-11-20T09:49:40;100783.69;;;3.10;100.00
70015;BME280;57358;51.094;6.760;2022-11-20T09:54:46;100767.97;;;3.19;100.00
70015;BME280;57358;51.094;6.760;2022-11-20T09:57:18;100784.88;;;3.39;100.00
70015;BME280;57358;51.094;6.760;2022-11-20T09:59:53;100859.28;;;3.77;100.00
70015;BME280;57358;51.094;6.760;2022-11-20T10:02:30;100766.28;;;3.17;100.00
70015;BME280;57358;51.094;6.760;2022-11-20T10:07:43;100658.66;;;2.55;100.00
70015;BME280;57358;51.094;6.760;2022-11-20T10:10:26;100794.47;;;3.34;100.00
70015;BME280;57358;51.094;6.760;2022-11-20T10:13:24;100857.53;;;3.78;100.00
70015;BME280;57358;51.094;6.760;2022-11-20T10:16:25;100851.41;;;3.82;100.00
70015;BME280;57358;51.094;6.760;2022-11-20T10:19:14;100845.34;;;3.82;100.00
70015;BME280;57358;51.094;6.760;2022-11-20T10:25:15;100826.13;;;3.90;100.00
70015;BME280;57358;51.094;6.760;2022-11-20T10:30:19;100830.06;;;4.07;100.00
70015;BME280;57358;51.094;6.760;2022-11-20T10:33:13;100720.41;;;3.59;100.00
70015;BME280;57358;51.094;6.760;2022-11-20T10:35:45;100814.34;;;4.13;100.00
70015;BME280;57358;51.094;6.760;2022-11-20T10:38:28;100789.25;;;4.13;100.00
70015;BME280;57358;51.094;6.760;2022-11-20T10:41:01;100733.28;;;4.00;100.00
70015;BME280;57358;51.094;6.760;2022-11-20T10:43:49;100691.09;;;3.90;100.00
70015;BME280;57358;51.094;6.760;2022-11-20T10:46:21;100729.19;;;4.26;100.00
70015;BME280;57358;51.094;6.760;2022-11-20T10:48:49;100797.91;;;4.81;100.00
70015;BME280;57358;51.094;6.760;2022-11-20T10:56:41;100702.19;;;4.64;100.00
70015;BME280;57358;51.094;6.760;2022-11-20T10:59:33;100777.88;;;5.16;100.00
70015;BME280;57358;51.094;6.760;2022-11-20T11:02:12;100745.47;;;4.96;100.00
70015;BME280;57358;51.094;6.760;2022-11-20T11:04:43;100733.84;;;4.78;100.00
70015;BME280;57358;51.094;6.760;2022-11-20T11:07:24;100768.22;;;4.90;100.00
70015;BME280;57358;51.094;6.760;2022-11-20T11:09:53;100760.66;;;4.80;100.00
70015;BME280;57358;51.094;6.760;2022-11-20T11:12:22;100755.78;;;4.68;100.00
70015;BME280;57358;51.094;6.760;2022-11-20T11:14:52;100717.50;;;4.42;100.00
70015;BME280;57358;51.094;6.760;2022-11-20T11:22:48;100708.75;;;4.45;100.00
70015;BME280;57358;51.094;6.760;2022-11-20T11:25:29;100690.25;;;4.24;100.00
70015;BME280;57358;51.094;6.760;2022-11-20T11:27:58;100706.25;;;4.42;100.00
70015;BME280;57358;51.094;6.760;2022-11-20T11:30:27;100651.75;;;4.07;100.00
70015;BME280;57358;51.094;6.760;2022-11-20T11:33:06;100711.19;;;4.51;100.00
70015;BME280;57358;51.094;6.760;2022-11-20T11:35:33;100706.00;;;4.51;100.00
70015;BME280;57358;51.094;6.760;2022-11-20T11:38:05;100669.84;;;4.43;100.00
70015;BME280;57358;51.094;6.760;2022-11-20T11:40:35;100639.69;;;4.37;100.00
70015;BME280;57358;51.094;6.760;2022-11-20T11:43:06;100704.91;;;4.91;100.00
70015;BME280;57358;51.094;6.760;2022-11-20T11:45:54;100679.75;;;4.91;100.00
70015;BME280;57358;51.094;6.760;2022-11-20T11:48:21;100707.66;;;5.16;100.00
70015;BME280;57358;51.094;6.760;2022-11-20T11:50:49;100701.09;;;5.32;100.00
70015;BME280;57358;51.094;6.760;2022-11-20T11:53:18;100690.09;;;5.23;100.00
70015;BME280;57358;51.094;6.760;2022-11-20T11:55:58;100660.19;;;5.08;100.00
70015;BME280;57358;51.094;6.760;2022-11-20T12:01:37;100687.53;;;5.21;100.00
70015;BME280;57358;51.094;6.760;2022-11-20T12:04:37;100561.03;;;4.31;100.00
70015;BME280;57358;51.094;6.760;2022-11-20T12:07:22;100587.53;;;4.44;100.00
70015;BME280;57358;51.094;6.760;2022-11-20T12:10:19;100674.25;;;5.02;100.00
70015;BME280;57358;51.094;6.760;2022-11-20T12:12:50;100620.53;;;4.71;100.00
70015;BME280;57358;51.094;6.760;2022-11-20T12:15:45;100657.38;;;4.86;100.00
70015;BME280;57358;51.094;6.760;2022-11-20T12:18:16;100569.56;;;4.36;100.00
70015;BME280;57358;51.094;6.760;2022-11-20T12:23:39;100630.88;;;4.73;100.00
70015;BME280;57358;51.094;6.760;2022-11-20T12:26:31;100565.56;;;4.24;100.00
70015;BME280;57358;51.094;6.760;2022-11-20T12:29:15;100648.22;;;4.72;100.00
70015;BME280;57358;51.094;6.760;2022-11-20T12:37:40;100629.03;;;4.47;100.00
70015;BME280;57358;51.094;6.760;2022-11-20T12:40:32;100588.09;;;4.24;100.00
70015;BME280;57358;51.094;6.760;2022-11-20T12:43:22;100625.22;;;4.58;100.00
70015;BME280;57358;51.094;6.760;2022-11-20T12:49:29;100601.78;;;4.60;100.00
70015;BME280;57358;51.094;6.760;2022-11-20T12:52:20;100572.47;;;4.55;100.00
70015;BME280;57358;51.094;6.760;2022-11-20T12:55:11;100615.75;;;4.87;100.00
70015;BME280;57358;51.094;6.760;2022-11-20T12:57:59;100612.03;;;4.94;100.00
70015;BME280;57358;51.094;6.760;2022-11-20T13:00:29;100523.03;;;4.28;100.00
70015;BME280;57358;51.094;6.760;2022-11-20T13:05:43;100595.09;;;4.81;100.00
70015;BME280;57358;51.094;6.760;2022-11-20T13:08:20;100576.44;;;4.68;100.00
70015;BME280;57358;51.094;6.760;2022-11-20T13:10:55;100539.59;;;4.54;100.00
70015;BME280;57358;51.094;6.760;2022-11-20T13:14:07;100576.03;;;4.82;100.00
70015;BME280;57358;51.094;6.760;2022-11-20T13:19:32;100439.31;;;4.18;100.00
70015;BME280;57358;51.094;6.760;2022-11-20T13:21:59;100544.75;;;4.85;100.00
70015;BME280;57358;51.094;6.760;2022-11-20T13:24:28;100558.66;;;5.11;100.00
70015;BME280;57358;51.094;6.760;2022-11-20T13:29:41;100478.00;;;4.57;100.00
70015;BME280;57358;51.094;6.760;2022-11-20T13:32:15;100553.34;;;5.14;100.00
70015;BME280;57358;51.094;6.760;2022-11-20T13:34:54;100489.34;;;4.83;100.00
70015;BME280;57358;51.094;6.760;2022-11-20T13:37:36;100507.78;;;5.02;100.00
70015;BME280;57358;51.094;6.760;2022-11-20T13:45:54;100437.03;;;4.66;100.00
70015;BME280;57358;51.094;6.760;2022-11-20T13:48:24;100518.25;;;5.27;100.00
70015;BME280;57358;51.094;6.760;2022-11-20T13:53:36;100505.97;;;5.31;100.00
70015;BME280;57358;51.094;6.760;2022-11-20T13:56:23;100446.91;;;4.81;100.00
70015;BME280;57358;51.094;6.760;2022-11-20T13:59:02;100494.38;;;5.14;100.00
70015;BME280;57358;51.094;6.760;2022-11-20T14:01:40;100463.78;;;4.96;100.00
70015;BME280;57358;51.094;6.760;2022-11-20T14:04:08;100388.25;;;4.47;100.00
70015;BME280;57358;51.094;6.760;2022-11-20T14:06:42;100440.03;;;4.80;100.00
70015;BME280;57358;51.094;6.760;2022-11-20T14:09:29;100420.38;;;4.71;100.00
70015;BME280;57358;51.094;6.760;2022-11-20T14:11:57;100475.25;;;4.89;100.00
70015;BME280;57358;51.094;6.760;2022-11-20T14:14:28;100475.66;;;5.03;100.00